»·PEaware :: N2RC KSMO-KSBA

N2RC :: KSMO-KSBA

FLIGHT INFORMATION

Flight Status: Arrived
Operator: Privately registered:
United States
More flights under this callsign
Pilot: Reinaldo C. (26424)
Aircraft: Unknown
(DHC8)
More flights by this aircraft type
Origin: KSMO Santa Monica Mun
United States
Destination: KSBA Santa Barbara Mun
United States
More flights between these airports :: More routes between these airports
Route: SMO V107 SADDE V299 VTU VTU282R KWANG
File this flight plan on PilotEdge
Remarks: TEC ROUTE SMOP38
Altitude:
(Current/Filed)
6,000ft
Speed:
(Current/Filed)
320kts
Departed: 20-Oct-20 03:16 PM
Arrived: 20-Oct-20 03:44 PM
Distance/Time
Traveled:
73nm/0:28
Distance/Time
To Go:
Arrived

Flight Plot

Page will automatically refresh every two minutes.


Map Options




Map Legend


Flown Route
Filed Route
Departure Airport
Arrival Airport
Navaid (VOR, NDB)
Fix

Horizontal Profiles

Position Reports

Time Latitude Longitude Heading Altitude Ground
Speed
20-Oct-20 14:32 34.018534 -118.449686 134 182ft 0kts
20-Oct-20 14:33 34.018534 -118.449686 134 182ft 0kts
20-Oct-20 14:34 34.018534 -118.449686 134 182ft 0kts
20-Oct-20 14:35 34.018534 -118.449686 134 182ft 0kts
20-Oct-20 14:36 34.018534 -118.449686 134 182ft 0kts
20-Oct-20 14:37 34.018534 -118.449686 134 182ft 0kts
20-Oct-20 14:38 34.018534 -118.449686 134 182ft 0kts
20-Oct-20 14:39 34.018534 -118.449686 134 182ft 0kts
20-Oct-20 14:40 34.018534 -118.449686 134 182ft 0kts
20-Oct-20 14:41 34.018534 -118.449686 134 182ft 0kts
20-Oct-20 14:42 34.018534 -118.449686 134 182ft 0kts
20-Oct-20 14:43 34.018534 -118.449686 134 182ft 0kts
20-Oct-20 14:44 34.018534 -118.449686 134 182ft 0kts
20-Oct-20 14:45 34.018534 -118.449686 134 182ft 0kts
20-Oct-20 14:46 34.018534 -118.449686 134 182ft 0kts
20-Oct-20 14:47 34.018534 -118.449686 134 182ft 0kts
20-Oct-20 14:48 34.018534 -118.449686 134 182ft 0kts
20-Oct-20 14:49 34.018534 -118.449686 134 182ft 0kts
20-Oct-20 14:50 34.018534 -118.449686 134 182ft 0kts
20-Oct-20 14:51 34.018534 -118.449686 134 182ft 0kts
20-Oct-20 14:52 34.018534 -118.449686 134 182ft 0kts
20-Oct-20 14:53 34.018534 -118.449686 134 182ft 0kts
20-Oct-20 14:54 34.018534 -118.449686 134 182ft 0kts
20-Oct-20 14:55 34.018534 -118.449686 134 182ft 0kts
20-Oct-20 14:56 34.018534 -118.449686 134 182ft 0kts
20-Oct-20 14:57 34.018534 -118.449686 134 182ft 0kts
20-Oct-20 14:58 34.018534 -118.449686 134 182ft 0kts
20-Oct-20 14:59 34.018534 -118.449686 134 182ft 0kts
20-Oct-20 15:00 34.018534 -118.449686 134 182ft 0kts
20-Oct-20 15:01 34.018534 -118.449686 134 182ft 0kts
20-Oct-20 15:02 34.018534 -118.449686 134 182ft 0kts
20-Oct-20 15:03 34.018534 -118.449686 134 182ft 0kts
20-Oct-20 15:04 34.018534 -118.449686 134 182ft 0kts
20-Oct-20 15:05 34.018534 -118.449686 134 182ft 0kts
20-Oct-20 15:06 34.018534 -118.449686 134 182ft 0kts
20-Oct-20 15:07 34.018534 -118.449686 134 182ft 0kts
20-Oct-20 15:08 34.018534 -118.449686 134 182ft 0kts
20-Oct-20 15:09 34.019650 -118.447921 44 182ft 0kts
20-Oct-20 15:10 34.020948 -118.446117 119 182ft 0kts
20-Oct-20 15:11 34.020948 -118.446117 119 182ft 0kts
20-Oct-20 15:12 34.020948 -118.446117 119 182ft 0kts
20-Oct-20 15:13 34.020948 -118.446118 119 182ft 0kts
20-Oct-20 15:14 34.013358 -118.454273 223 184ft 31kts
20-Oct-20 15:15 33.983152 -118.488673 224 2345ft 168kts
20-Oct-20 15:16 33.955911 -118.544423 274 3151ft 250kts
20-Oct-20 15:17 33.963052 -118.619881 277 5888ft 228kts
20-Oct-20 15:18 33.992407 -118.696574 307 5998ft 265kts
20-Oct-20 15:19 34.035967 -118.762370 302 6003ft 255kts
20-Oct-20 15:20 34.060169 -118.842172 288 6001ft 263kts
20-Oct-20 15:21 34.081609 -118.924118 288 6006ft 255kts
20-Oct-20 15:22 34.102757 -119.003263 288 6019ft 249kts
20-Oct-20 15:23 34.126641 -119.078405 297 6023ft 246kts
20-Oct-20 15:24 34.156606 -119.148863 298 6023ft 244kts
20-Oct-20 15:25 34.186368 -119.218720 298 6024ft 243kts
20-Oct-20 15:26 34.216234 -119.288754 298 6024ft 243kts
20-Oct-20 15:27 34.247045 -119.361332 298 5559ft 249kts
20-Oct-20 15:28 34.279294 -119.436729 298 4764ft 256kts
20-Oct-20 15:29 34.308542 -119.512932 278 4101ft 242kts
20-Oct-20 15:30 34.311586 -119.591983 273 4028ft 227kts
20-Oct-20 15:31 34.314010 -119.667511 273 4025ft 222kts
20-Oct-20 15:32 34.316525 -119.742936 273 4024ft 226kts
20-Oct-20 15:33 34.319211 -119.820759 273 4019ft 232kts
20-Oct-20 15:34 34.321887 -119.898203 273 4017ft 234kts
20-Oct-20 15:35 34.324456 -119.978156 271 3139ft 234kts
20-Oct-20 15:36 34.326884 -120.051188 273 3008ft 196kts
20-Oct-20 15:37 34.359294 -120.091148 343 3025ft 180kts
20-Oct-20 15:38 34.406480 -120.087545 51 3025ft 187kts
20-Oct-20 15:39 34.421333 -120.026268 81 2727ft 194kts
20-Oct-20 15:40 34.425569 -119.967510 87 1807ft 156kts
20-Oct-20 15:41 34.426564 -119.912396 94 1074ft 175kts
20-Oct-20 15:42 34.427484 -119.856546 89 62ft 136kts
20-Oct-20 15:43 34.428037 -119.841822 15 17ft 0kts
20-Oct-20 15:44 34.428895 -119.842059 345 17ft 0kts
20-Oct-20 15:45 34.430471 -119.840439 65 17ft 0kts
20-Oct-20 15:46 34.431245 -119.838758 253 17ft 0kts

Navigation Log

Ident Type
Flight plan parsing failed, navigation log unavailable